KLVS

Details ICAO KLVS (LVS)
Name LAS VEGAS MUNI
Region United States
Timezone America/Denver (UTC-7.0)
Plans Departing 28
Arriving 81
Stats Elevation 6,877 ft / 2,096 m (AMSL)
Location 35.654149° -105.142439°
Runways 2
Magnetic Variation 7.930° E
Sunrise 2017-12-17 14:05:45 UTC / 2017-12-17 07:05:45 Local
Sunset 2017-12-17 23:50:39 UTC / 2017-12-17 16:50:39 Local
Advertisement - Login to hide

Runways

ID Width Length Bearing (true) Bearing (mag) Surface Threshold Offset Overrun Length
02 75 ft / 23 m 5,007 ft / 1,526 m 34.79° 26.86° Asphalt 0 ft / 0 m 0 ft / 0 m
14 75 ft / 23 m 8,208 ft / 2,502 m 151.74° 143.81° Asphalt 0 ft / 0 m 0 ft / 0 m
20 75 ft / 23 m 5,007 ft / 1,526 m 214.79° 206.86° Asphalt 0 ft / 0 m 0 ft / 0 m
32 75 ft / 23 m 8,208 ft / 2,502 m 331.75° 323.82° Asphalt 0 ft / 0 m 0 ft / 0 m

Map

Weather


0- 5 10 15 20 25 30 35+ Temperature / ° C

Clouds and Precipitation
Forecast for 2017-12-17 18:00 UTC. Updated an hour ago

Ground ~20,000 ft ~40,000 ft Winds

METAR

KLVS 171553Z AUTO 24005KT 10SM FEW120 02/M11 A3000 RMK AO2 SLP144 T00221111

TAF

TAF KLVS 171120Z 1712/1812 04006KT P6SM SCT130 BKN200 FM171600 15007KT P6SM BKN150 FM171900 18012G20KT P6SM SCT100 SCT150 FM180100 18009KT P6SM SCT090 SCT150

Frequencies

Recorded 118.52 MHz ASOS
Unicom 122.80 MHz CTAF/UNICOM
Warning: Do not use this data for real-world aviation or navigation. No guarantee of current accuracy is given.